Flight Track Log - Related Links

Times and Time Zones

All times are in EDT time to prevent confusion due to time zone crossing. See the UCA596 flight status page for this flight to view local times or setup timezone preferences in your user account.

Time Position Orientation Groundspeed Altitude Reporting Facility
EDT Latitude Longitude Course Direction KTS MPH feet Rate Location/Type
Thu 12:59:26 PM 39.0000 -77.4333 360° North 172 198 2,700  Level Potomac TRACON
Thu 01:00:26 PM 39.0500 -77.4333 360° North 170 196 4,700 1,950 Climbing Potomac TRACON
Thu 01:01:26 PM 39.1000 -77.4167 15° North 162 186 6,600 1,623 Climbing Potomac TRACON
Thu 01:03:53 PM 39.2042 -77.4050 North 166 191 10,300 1,463 Climbing Washington Center
Thu 01:04:51 PM 39.2603 -77.4089 357° North 179 206 11,600 1,525 Climbing Washington Center
Thu 01:05:51 PM 39.3164 -77.4158 355° North 190 219 13,300 1,636 Climbing Washington Center
Thu 01:06:52 PM 39.3683 -77.4225 354° North 195 224 14,900 1,339 Climbing Washington Center
Thu 01:07:52 PM 39.4247 -77.4292 355° North 200 230 16,000 737 Climbing Washington Center
Thu 01:09:43 PM 39.5494 -77.4433 355° North 246 283 17,000 667 Climbing New York Center
Thu 01:10:43 PM 39.6219 -77.4528 354° North 251 289 17,900 1,000 Climbing New York Center
Thu 01:11:43 PM 39.6906 -77.4539 359° North 245 282 19,000 550 Climbing New York Center
Thu 01:12:43 PM 39.7617 -77.4525 North 250 288 19,000  Level New York Center
Thu 01:13:43 PM 39.8408 -77.4519 360° North 273 314 19,000  Level New York Center
Thu 01:14:43 PM 39.9181 -77.4514 360° North 273 314 19,000  Level New York Center
Thu 01:15:43 PM 39.9889 -77.4147 22° Northeast 278 320 19,000  Level New York Center
Thu 01:16:43 PM 40.0708 -77.3656 25° Northeast 294 338 19,000  Level New York Center
Thu 01:17:43 PM 40.1378 -77.3283 23° Northeast 300 345 19,000  Level New York Center
Thu 01:18:43 PM 40.2217 -77.2819 23° Northeast 300 345 19,000  Level New York Center
Thu 01:19:43 PM 40.2906 -77.2422 24° Northeast 300 345 19,000  Level New York Center
Thu 01:20:43 PM 40.3722 -77.1953 24° Northeast 300 345 19,000  Level New York Center
Thu 01:21:43 PM 40.4367 -77.1575 24° Northeast 293 337 19,000  Level New York Center
Thu 01:22:43 PM 40.5206 -77.1108 23° Northeast 293 337 19,000  Level New York Center
Thu 01:23:43 PM 40.5875 -77.0706 25° Northeast 288 331 19,000  Level New York Center
Thu 01:24:43 PM 40.6669 -77.0231 24° Northeast 288 331 19,000  Level New York Center
Thu 01:25:43 PM 40.7358 -76.9853 23° Northeast 288 331 19,000  Level New York Center
Thu 01:26:43 PM 40.8153 -76.9378 24° Northeast 288 331 19,000 -350 Level New York Center
Thu 01:27:43 PM 40.8842 -76.8975 24° Northeast 288 331 18,300 -750 Descending New York Center
Thu 01:28:43 PM 40.9636 -76.8522 23° Northeast 294 338 17,500 -650 Descending New York Center
Thu 01:29:43 PM 41.0408 -76.8069 24° Northeast 299 344 17,000 -250 Descending New York Center
Thu 01:30:43 PM 41.1139 -76.7639 24° Northeast 299 344 17,000  Level New York Center
Thu 01:31:43 PM 41.1867 -76.7233 23° Northeast 294 338 17,000  Level New York Center
Thu 01:32:43 PM 41.2642 -76.6750 25° Northeast 281 323 17,000  Level New York Center
Thu 01:34:00 PM 41.3479 -76.6292 27° Northeast  Level FlightAware Approximate
Thu 01:34:43 PM 41.3994 -76.5956 27° Northeast 281 323 17,000  Level New York Center
Thu 01:35:43 PM 41.4681 -76.5517 24° Northeast 274 315 17,000  Level New York Center
Thu 01:36:00 PM 41.5424 -76.5012 24° Northeast  Level FlightAware Approximate
Thu 01:36:43 PM 41.5475 -76.5058 23° Northeast 274 315 17,000  Level New York Center
Thu 01:37:43 PM 41.6139 -76.4644 25° Northeast 269 310 17,000 -300 Level New York Center
Thu 01:38:43 PM 41.6867 -76.4233 23° Northeast 264 304 16,400 -850 Descending New York Center
Thu 01:39:43 PM 41.7531 -76.3844 24° Northeast 269 310 15,300 -1,200 Descending New York Center
Thu 01:40:43 PM 41.8242 -76.3375 26° Northeast 274 315 14,000 -1,700 Descending New York Center
Thu 01:41:43 PM 41.8917 -76.2736 35° Northeast 272 313 11,900 -2,050 Descending New York Center
Thu 01:42:43 PM 41.9439 -76.2250 35° Northeast 247 284 9,900 -2,000 Descending New York Center
Thu 01:43:43 PM 41.9958 -76.1789 33° Northeast 224 258 7,900 -2,000 Descending New York Center
Thu 01:44:43 PM 42.0394 -76.1381 35° Northeast 224 258 5,900 -1,700 Descending New York Center
Thu 01:45:43 PM 42.0781 -76.0683 53° Northeast 216 249 4,500 -900 Descending New York Center
Thu 01:46:43 PM 42.1267 -76.0053 44° Northeast 222 255 4,100 2,250 Descending New York Center
Thu 01:47:43 PM 42.1647 -75.9439 50° Northeast 222 255 9,000 2,450 Climbing New York Center
Thu 01:48:43 PM 42.2047 -75.8856 47° Northeast 222 255 9,000  Level New York Center
Thu 01:49:43 PM 42.2425 -75.8239 50° Northeast 222 255 9,000  Level New York Center
Thu 01:50:43 PM 42.2583 -75.8000 48° Northeast 222 255 9,000  Level New York Center
Thu 01:53:00 PM 42.2180 -75.9153 245° Southwest  Level FlightAware Approximate
Thu 02:00:00 PM 42.2000 -75.9667 North  Level FlightAware Approximate

Login

Don't have an account? Register now (free) for customized features, flight alerts, and more!